createdAt,value
2018-12-18T00:00:42.958Z,527.02
2018-12-18T00:03:11.617Z,539.52
2018-12-18T00:05:40.241Z,530.58
2018-12-18T00:08:09.020Z,535.20
2018-12-18T00:10:42.855Z,519.28
2018-12-18T00:13:11.439Z,532.08
2018-12-18T00:15:40.021Z,531.15
2018-12-18T00:18:08.567Z,533.67
2018-12-18T00:20:37.188Z,530.83
2018-12-18T00:23:06.093Z,537.05
2018-12-18T00:25:34.635Z,545.25
2018-12-18T00:28:03.601Z,506.32
2018-12-18T00:30:32.355Z,482.17
2018-12-18T00:33:01.010Z,503.32
2018-12-18T00:35:29.621Z,495.85
2018-12-18T00:37:58.242Z,471.37
2018-12-18T00:40:26.817Z,506.13
2018-12-18T00:42:56.131Z,490.63
2018-12-18T00:45:24.669Z,490.30
2018-12-18T00:47:53.303Z,482.73
2018-12-18T00:50:22.157Z,478.68
2018-12-18T00:52:50.807Z,473.97
2018-12-18T00:55:19.359Z,484.18
2018-12-18T00:57:47.933Z,471.72
2018-12-18T01:00:16.472Z,488.37
2018-12-18T01:02:45.053Z,515.83
2018-12-18T01:05:13.663Z,504.50
2018-12-18T01:07:42.184Z,519.95
2018-12-18T01:10:10.875Z,489.87
2018-12-18T01:12:40.128Z,450.98
2018-12-18T01:15:08.864Z,475.42
2018-12-18T01:17:37.427Z,468.85
2018-12-18T01:20:06.428Z,476.20
2018-12-18T01:22:35.324Z,455.35
2018-12-18T01:25:05.950Z,453.82
2018-12-18T01:27:34.840Z,467.65
2018-12-18T01:30:03.388Z,484.98
2018-12-18T01:32:31.936Z,467.07
2018-12-18T01:35:00.493Z,457.60
2018-12-18T01:37:29.064Z,473.97
2018-12-18T01:39:57.747Z,461.95
2018-12-18T01:42:26.449Z,477.17
2018-12-18T01:44:55.362Z,456.50
2018-12-18T01:47:23.950Z,459.52
2018-12-18T01:49:52.513Z,466.40
2018-12-18T01:52:21.071Z,467.70
2018-12-18T01:54:49.646Z,466.85
2018-12-18T01:57:18.285Z,452.90
2018-12-18T01:59:46.819Z,453.05
2018-12-18T02:02:15.367Z,474.02
2018-12-18T02:04:43.881Z,453.85
2018-12-18T02:07:12.383Z,441.48
2018-12-18T02:09:41.013Z,470.88
2018-12-18T02:12:09.899Z,462.35
2018-12-18T02:14:38.471Z,458.75
2018-12-18T02:17:07.017Z,468.23
2018-12-18T02:19:36.026Z,472.85
2018-12-18T02:22:05.531Z,473.32
2018-12-18T02:24:35.095Z,458.68
2018-12-18T02:27:03.844Z,461.60
2018-12-18T02:29:32.487Z,475.70
2018-12-18T02:32:01.195Z,477.62
2018-12-18T02:34:29.749Z,471.18
2018-12-18T02:36:58.311Z,459.10
2018-12-18T02:39:26.896Z,435.13
2018-12-18T02:41:55.982Z,457.05
2018-12-18T02:44:24.558Z,438.07
2018-12-18T02:46:53.168Z,453.58
2018-12-18T02:49:21.760Z,423.35
2018-12-18T02:51:50.270Z,428.52
2018-12-18T02:54:19.660Z,429.23
2018-12-18T02:56:48.166Z,423.20
2018-12-18T02:59:16.761Z,426.70
2018-12-18T03:01:45.282Z,431.43
2018-12-18T03:04:20.884Z,436.90
2018-12-18T03:06:44.442Z,418.48
2018-12-18T03:09:13.052Z,435.63
2018-12-18T03:11:42.103Z,419.60
2018-12-18T03:14:10.656Z,426.63
2018-12-18T03:16:39.266Z,417.23
2018-12-18T03:19:07.802Z,424.48
2018-12-18T03:21:37.038Z,422.98
2018-12-18T03:24:05.680Z,419.93
2018-12-18T03:26:34.617Z,432.62
2018-12-18T03:29:03.294Z,454.35
2018-12-18T03:31:32.279Z,446.80
2018-12-18T03:34:00.781Z,411.62
2018-12-18T03:36:29.349Z,411.55
2018-12-18T03:38:58.001Z,410.52
2018-12-18T03:41:26.871Z,420.98
2018-12-18T03:43:55.500Z,417.85
2018-12-18T03:46:24.202Z,451.67
2018-12-18T03:48:52.787Z,464.17
2018-12-18T03:51:21.446Z,441.52
2018-12-18T03:53:50.110Z,442.65
2018-12-18T03:56:19.210Z,454.50
2018-12-18T03:58:47.742Z,450.48
2018-12-18T04:01:16.248Z,452.00
2018-12-18T04:03:44.839Z,463.60
2018-12-18T04:06:13.582Z,449.42
2018-12-18T04:08:42.275Z,433.32
2018-12-18T04:11:11.016Z,442.80
2018-12-18T04:13:39.751Z,432.90
2018-12-18T04:16:08.321Z,436.12
2018-12-18T04:18:37.346Z,436.00
2018-12-18T04:21:06.227Z,431.27
2018-12-18T04:23:35.459Z,446.12
2018-12-18T04:26:04.734Z,428.82
2018-12-18T04:28:33.873Z,421.93
2018-12-18T04:31:02.427Z,422.57
2018-12-18T04:33:31.563Z,426.60
2018-12-18T04:36:00.123Z,427.40
2018-12-18T04:38:28.903Z,417.20
2018-12-18T04:40:57.531Z,430.45
2018-12-18T04:43:26.092Z,429.65
2018-12-18T04:45:54.650Z,428.55
2018-12-18T04:48:23.255Z,430.57
2018-12-18T04:50:52.060Z,430.93
2018-12-18T04:53:21.495Z,458.57
2018-12-18T04:55:50.071Z,458.32
2018-12-18T04:58:18.726Z,450.83
2018-12-18T05:00:47.435Z,440.90
2018-12-18T05:03:16.104Z,436.68
2018-12-18T05:05:44.644Z,441.85
2018-12-18T05:08:13.248Z,440.43
2018-12-18T05:10:41.788Z,447.20
2018-12-18T05:13:10.567Z,438.17
2018-12-18T05:15:39.240Z,439.20
2018-12-18T05:18:07.900Z,439.15
2018-12-18T05:23:23.944Z,413.10
2018-12-18T05:25:52.490Z,413.15
2018-12-18T05:28:21.090Z,421.15
2018-12-18T05:30:49.577Z,397.85
2018-12-18T05:33:18.949Z,414.27
2018-12-18T05:35:47.494Z,394.60
2018-12-18T05:38:16.092Z,397.75
2018-12-18T05:40:44.633Z,403.73
2018-12-18T05:43:13.201Z,384.85
2018-12-18T05:45:41.783Z,400.42
2018-12-18T05:48:10.510Z,392.65
2018-12-18T05:50:39.231Z,385.70
2018-12-18T05:53:08.643Z,375.45
2018-12-18T05:55:37.759Z,379.23
2018-12-18T05:58:06.580Z,364.55
2018-12-18T06:00:35.202Z,378.48
2018-12-18T06:03:04.115Z,374.52
2018-12-18T06:05:32.812Z,352.18
2018-12-18T06:08:01.412Z,354.23
2018-12-18T06:10:31.630Z,334.85
2018-12-18T06:13:00.201Z,293.97
2018-12-18T06:15:28.795Z,297.45
2018-12-18T06:17:57.330Z,291.88
2018-12-18T06:20:26.014Z,304.35
2018-12-18T06:22:54.715Z,282.05
2018-12-18T06:25:23.528Z,286.32
2018-12-18T06:27:52.169Z,282.17
2018-12-18T06:30:20.750Z,273.45
2018-12-18T06:32:49.404Z,270.77
2018-12-18T06:35:17.966Z,289.50
2018-12-18T06:37:47.484Z,288.05
2018-12-18T06:40:17.030Z,285.77
2018-12-18T06:42:46.303Z,289.52
2018-12-18T06:45:15.042Z,287.70
2018-12-18T06:47:43.678Z,289.70
2018-12-18T06:50:12.254Z,259.10
2018-12-18T06:52:42.062Z,253.98
2018-12-18T06:55:10.806Z,249.73
2018-12-18T06:57:39.452Z,268.42
2018-12-18T07:00:11.534Z,264.33
2018-12-18T07:02:40.718Z,281.40
2018-12-18T07:05:09.504Z,287.93
2018-12-18T07:07:38.115Z,295.85
2018-12-18T07:10:07.408Z,306.13
2018-12-18T07:12:36.812Z,287.60
2018-12-18T07:15:06.032Z,274.90
2018-12-18T07:17:34.595Z,277.65
2018-12-18T07:20:03.464Z,297.57
2018-12-18T07:22:32.057Z,298.10
2018-12-18T07:25:00.776Z,297.30
2018-12-18T07:27:29.921Z,292.15
2018-12-18T07:29:58.461Z,276.40
2018-12-18T07:32:27.041Z,264.08
2018-12-18T07:34:55.905Z,265.02
2018-12-18T07:37:24.741Z,269.93
2018-12-18T07:39:53.237Z,277.65
2018-12-18T07:42:21.924Z,296.65
2018-12-18T07:44:50.867Z,303.45
2018-12-18T07:47:19.429Z,275.55
2018-12-18T07:49:48.209Z,267.80
2018-12-18T07:52:17.527Z,261.35
2018-12-18T07:54:46.101Z,260.30
2018-12-18T07:57:15.425Z,261.32
2018-12-18T07:59:43.937Z,288.20
2018-12-18T08:02:12.524Z,284.23
2018-12-18T08:04:41.131Z,285.30
2018-12-18T08:07:09.757Z,297.53
2018-12-18T08:09:38.299Z,296.40
2018-12-18T08:12:06.899Z,305.15
2018-12-18T08:14:36.283Z,319.18
2018-12-18T08:17:05.380Z,284.30
2018-12-18T08:19:34.784Z,294.82
2018-12-18T08:22:03.344Z,282.90
2018-12-18T08:24:32.094Z,290.80
2018-12-18T08:27:00.653Z,316.42
2018-12-18T08:29:29.155Z,325.87
2018-12-18T08:31:57.830Z,315.43
2018-12-18T08:34:26.324Z,422.50
2018-12-18T08:36:54.942Z,422.50
2018-12-18T08:39:23.757Z,404.75
2018-12-18T08:41:52.302Z,342.32
2018-12-18T08:44:20.961Z,359.92
2018-12-18T08:46:49.670Z,365.30
2018-12-18T08:49:18.286Z,411.82
2018-12-18T08:51:46.884Z,329.37
2018-12-18T08:54:16.020Z,356.80
2018-12-18T08:56:44.632Z,373.02
2018-12-18T08:59:13.152Z,360.17
2018-12-18T09:01:42.103Z,348.32
2018-12-18T09:04:10.665Z,351.62
2018-12-18T09:06:39.255Z,344.93
2018-12-18T09:09:08.243Z,334.95
2018-12-18T09:11:36.924Z,338.35
2018-12-18T09:14:06.152Z,329.27
2018-12-18T09:16:40.241Z,344.45
2018-12-18T09:19:09.151Z,355.10
2018-12-18T09:21:37.698Z,337.17
2018-12-18T09:24:06.389Z,356.35
2018-12-18T09:26:35.126Z,341.30
2018-12-18T09:29:03.779Z,359.57
2018-12-18T09:31:32.704Z,348.35
2018-12-18T09:34:01.499Z,390.35
2018-12-18T09:36:30.151Z,375.05
2018-12-18T09:39:04.148Z,365.35
2018-12-18T09:41:37.975Z,367.20
2018-12-18T09:44:11.048Z,360.05
2018-12-18T09:46:39.670Z,356.65
2018-12-18T09:49:08.508Z,370.37
2018-12-18T09:51:37.190Z,344.40
2018-12-18T09:54:05.855Z,342.90
2018-12-18T09:56:38.660Z,339.05
2018-12-18T09:59:07.197Z,332.32
2018-12-18T10:01:35.731Z,300.50
2018-12-18T10:04:04.359Z,266.68
2018-12-18T10:06:33.109Z,263.27
2018-12-18T10:09:01.676Z,241.27
2018-12-18T10:11:30.232Z,233.25
2018-12-18T10:13:58.834Z,226.18
2018-12-18T10:16:27.503Z,235.17
2018-12-18T10:18:56.104Z,253.70
2018-12-18T10:21:24.802Z,263.35
2018-12-18T10:23:53.377Z,273.15
2018-12-18T10:26:21.951Z,277.50
2018-12-18T10:28:50.521Z,281.60
2018-12-18T10:31:19.157Z,298.10
2018-12-18T10:33:47.730Z,282.53
2018-12-18T10:36:16.338Z,297.12
2018-12-18T10:38:45.036Z,310.57
2018-12-18T10:41:13.685Z,329.27
2018-12-18T10:43:42.274Z,357.48
2018-12-18T10:46:10.868Z,310.68
2018-12-18T10:48:39.425Z,309.77
2018-12-18T10:51:08.094Z,339.50
2018-12-18T10:53:37.106Z,366.40
2018-12-18T10:56:05.713Z,351.65
2018-12-18T10:58:34.270Z,324.42
2018-12-18T11:01:08.203Z,323.10
2018-12-18T11:03:36.789Z,311.73
2018-12-18T11:06:09.839Z,297.30
2018-12-18T11:08:36.188Z,303.83
2018-12-18T11:11:05.880Z,316.35
2018-12-18T11:13:34.883Z,315.65
2018-12-18T11:16:04.464Z,294.07
2018-12-18T11:18:33.150Z,301.40
2018-12-18T11:21:01.671Z,304.20
2018-12-18T11:23:30.335Z,304.43
2018-12-18T11:25:59.129Z,309.25
2018-12-18T11:28:27.729Z,297.45
2018-12-18T11:30:56.237Z,307.17
2018-12-18T11:33:24.941Z,361.05
2018-12-18T11:35:53.556Z,314.95
2018-12-18T11:38:22.103Z,292.10
2018-12-18T11:40:50.648Z,276.98
2018-12-18T11:43:19.324Z,320.37
2018-12-18T11:45:48.403Z,278.27
2018-12-18T11:48:17.099Z,282.48
2018-12-18T11:50:45.651Z,276.98
2018-12-18T11:53:14.379Z,273.27
2018-12-18T11:55:43.020Z,279.15
2018-12-18T11:58:11.526Z,303.18
2018-12-18T12:00:40.075Z,311.00
2018-12-18T12:03:08.677Z,298.95
2018-12-18T12:05:38.189Z,293.37
2018-12-18T12:08:06.874Z,285.52
2018-12-18T12:10:35.604Z,278.88
2018-12-18T12:13:04.403Z,272.85
2018-12-18T12:15:33.609Z,262.17
2018-12-18T12:18:02.215Z,272.20
2018-12-18T12:20:30.751Z,277.25
2018-12-18T12:22:59.295Z,292.30
2018-12-18T12:25:27.817Z,313.35
2018-12-18T12:28:01.801Z,315.00
2018-12-18T12:30:30.343Z,330.67
2018-12-18T12:32:58.995Z,323.02
2018-12-18T12:35:27.631Z,321.90
2018-12-18T12:37:56.349Z,321.10
2018-12-18T12:40:24.955Z,309.90
2018-12-18T12:42:53.513Z,307.25
2018-12-18T12:45:22.305Z,303.32
2018-12-18T12:47:53.179Z,293.75
2018-12-18T12:50:21.709Z,286.65
2018-12-18T12:52:50.269Z,295.80
2018-12-18T12:55:19.049Z,300.80
2018-12-18T12:57:47.704Z,324.92
2018-12-18T13:00:16.307Z,307.48
2018-12-18T13:02:44.903Z,290.70
2018-12-18T13:05:13.604Z,300.43
2018-12-18T13:07:42.250Z,345.90
2018-12-18T13:10:10.909Z,317.68
2018-12-18T13:12:39.569Z,302.13
2018-12-18T13:15:08.391Z,339.68
2018-12-18T13:17:36.937Z,323.43
2018-12-18T13:20:06.225Z,308.07
2018-12-18T13:22:34.847Z,301.40
2018-12-18T13:25:03.536Z,285.63
2018-12-18T13:27:32.102Z,365.48
2018-12-18T13:30:00.916Z,351.55
2018-12-18T13:32:29.468Z,618.73
2018-12-18T13:34:58.132Z,432.02
2018-12-18T13:37:26.769Z,950.45
2018-12-18T13:39:55.289Z,1043.63
2018-12-18T13:42:23.858Z,798.90
2018-12-18T13:44:52.428Z,1006.42
2018-12-18T13:47:27.013Z,621.83
2018-12-18T13:49:51.718Z,800.42
2018-12-18T13:52:20.259Z,436.50
2018-12-18T13:54:48.847Z,608.95
2018-12-18T13:57:17.466Z,653.30
2018-12-18T13:59:46.169Z,482.47
2018-12-18T14:02:14.694Z,569.25
2018-12-18T14:04:43.336Z,588.25
2018-12-18T14:07:11.968Z,601.92
2018-12-18T14:09:40.676Z,952.65
2018-12-18T14:12:09.285Z,1013.65
2018-12-18T14:14:37.876Z,722.23
2018-12-18T14:17:06.556Z,393.60
2018-12-18T14:19:35.421Z,372.42
2018-12-18T14:22:05.409Z,335.52
2018-12-18T14:24:33.972Z,457.38
2018-12-18T14:27:02.718Z,437.70
2018-12-18T14:29:31.354Z,303.70
2018-12-18T14:32:00.019Z,318.90
2018-12-18T14:34:28.547Z,312.98
2018-12-18T14:36:57.205Z,324.07
2018-12-18T14:39:25.805Z,340.55
2018-12-18T14:41:54.351Z,328.40
2018-12-18T14:44:23.079Z,365.77
2018-12-18T14:46:51.651Z,397.75
2018-12-18T14:49:20.207Z,343.48
2018-12-18T14:51:49.843Z,292.10
2018-12-18T14:54:18.655Z,307.03
2018-12-18T14:56:47.512Z,284.77
2018-12-18T14:59:16.187Z,280.83
2018-12-18T15:01:44.922Z,274.70
2018-12-18T15:04:13.574Z,257.37
2018-12-18T15:06:42.380Z,261.90
2018-12-18T15:09:10.970Z,279.95
2018-12-18T15:11:39.596Z,254.33
2018-12-18T15:14:08.164Z,242.50
2018-12-18T15:16:36.782Z,249.42
2018-12-18T15:19:05.350Z,252.00
2018-12-18T15:21:34.538Z,225.15
2018-12-18T15:24:04.127Z,240.30
2018-12-18T15:26:33.166Z,241.55
2018-12-18T15:29:01.885Z,287.90
2018-12-18T15:31:30.432Z,212.27
2018-12-18T15:33:59.020Z,236.37
2018-12-18T15:36:27.670Z,255.52
2018-12-18T15:38:56.227Z,232.70
2018-12-18T15:41:24.771Z,244.93
2018-12-18T15:43:53.348Z,217.35
2018-12-18T15:46:21.937Z,216.93
2018-12-18T15:48:50.545Z,230.18
2018-12-18T15:51:19.179Z,243.33
2018-12-18T15:53:47.917Z,221.30
2018-12-18T15:56:16.501Z,209.32
2018-12-18T15:58:45.046Z,209.07
2018-12-18T16:01:13.651Z,236.32
2018-12-18T16:03:42.233Z,215.00
2018-12-18T16:06:10.835Z,229.03
2018-12-18T16:08:39.450Z,280.23
2018-12-18T16:11:07.971Z,330.07
2018-12-18T16:13:36.539Z,296.95
2018-12-18T16:16:05.247Z,280.77
2018-12-18T16:18:33.918Z,253.45
2018-12-18T16:21:02.538Z,264.38
2018-12-18T16:23:31.148Z,308.75
2018-12-18T16:25:59.669Z,223.82
2018-12-18T16:28:28.254Z,290.87
2018-12-18T16:30:56.828Z,241.38
2018-12-18T16:33:26.500Z,228.73
2018-12-18T16:35:55.158Z,223.60
2018-12-18T16:38:23.712Z,213.52
2018-12-18T16:40:52.396Z,240.80
2018-12-18T16:43:20.973Z,218.10
2018-12-18T16:45:49.502Z,264.38
2018-12-18T16:48:18.068Z,242.07
2018-12-18T16:50:46.711Z,252.23
2018-12-18T16:53:15.270Z,369.20
2018-12-18T16:55:43.928Z,276.75
2018-12-18T16:58:12.473Z,397.90
2018-12-18T17:00:41.052Z,394.60
2018-12-18T17:03:09.609Z,440.15
2018-12-18T17:05:38.175Z,281.57
2018-12-18T17:08:07.188Z,256.32
2018-12-18T17:10:35.737Z,333.20
2018-12-18T17:13:04.899Z,292.75
2018-12-18T17:15:33.580Z,275.07
2018-12-18T17:18:02.169Z,280.57
2018-12-18T17:20:30.995Z,353.18
2018-12-18T17:22:59.535Z,354.40
2018-12-18T17:25:28.133Z,301.42
2018-12-18T17:27:56.743Z,345.90
2018-12-18T17:30:25.397Z,267.57
2018-12-18T17:32:54.786Z,271.07
2018-12-18T17:35:23.465Z,325.98
2018-12-18T17:37:52.095Z,328.12
2018-12-18T17:40:20.633Z,365.90
2018-12-18T17:42:49.783Z,314.48
2018-12-18T17:45:18.348Z,427.82
2018-12-18T17:47:46.975Z,328.35
2018-12-18T17:50:15.507Z,342.65
2018-12-18T17:52:44.125Z,388.12
2018-12-18T17:55:12.720Z,309.18
2018-12-18T17:57:41.266Z,281.87
2018-12-18T18:00:09.958Z,252.60
2018-12-18T18:02:38.739Z,245.87
2018-12-18T18:05:07.378Z,246.63
2018-12-18T18:07:42.749Z,238.37
2018-12-18T18:10:08.021Z,237.53
2018-12-18T18:12:36.671Z,244.93
2018-12-18T18:15:05.877Z,274.30
2018-12-18T18:17:35.224Z,302.98
2018-12-18T18:20:05.698Z,322.77
2018-12-18T18:22:35.025Z,405.30
2018-12-18T18:25:03.842Z,359.83
2018-12-18T18:27:32.537Z,334.87
2018-12-18T18:30:01.127Z,300.62
2018-12-18T18:32:29.796Z,297.15
2018-12-18T18:34:58.396Z,297.93
2018-12-18T18:37:27.018Z,288.42
2018-12-18T18:39:57.442Z,270.80
2018-12-18T18:42:26.033Z,305.75
2018-12-18T18:44:54.802Z,303.52
2018-12-18T18:47:23.380Z,292.80
2018-12-18T18:49:51.936Z,285.38
2018-12-18T18:52:20.626Z,276.80
2018-12-18T18:54:49.258Z,291.90
2018-12-18T18:57:19.065Z,279.93
2018-12-18T18:59:47.960Z,283.45
2018-12-18T19:02:16.569Z,302.87
2018-12-18T19:04:45.190Z,317.98
2018-12-18T19:07:13.753Z,328.27
2018-12-18T19:09:42.332Z,315.77
2018-12-18T19:12:10.953Z,342.33
2018-12-18T19:14:40.497Z,329.82
2018-12-18T19:17:09.052Z,311.20
2018-12-18T19:19:37.666Z,315.80
2018-12-18T19:22:06.294Z,314.55
2018-12-18T19:24:35.070Z,315.98
2018-12-18T19:27:03.670Z,327.52
2018-12-18T19:29:32.321Z,360.35
2018-12-18T19:32:00.916Z,368.40
2018-12-18T19:34:30.125Z,373.97
2018-12-18T19:36:58.916Z,365.65
2018-12-18T19:39:27.734Z,387.90
2018-12-18T19:41:56.307Z,367.95
2018-12-18T19:44:24.848Z,378.10
2018-12-18T19:46:53.450Z,376.90
2018-12-18T19:49:22.120Z,349.35
2018-12-18T19:51:50.784Z,326.70
2018-12-18T19:54:20.571Z,302.68
2018-12-18T19:56:49.171Z,293.85
2018-12-18T19:59:17.739Z,300.47
2018-12-18T20:01:46.353Z,312.88
2018-12-18T20:04:14.952Z,302.62
2018-12-18T20:06:43.568Z,303.73
2018-12-18T20:09:12.250Z,284.27
2018-12-18T20:11:41.544Z,284.10
2018-12-18T20:14:10.151Z,275.77
2018-12-18T20:16:38.668Z,281.68
2018-12-18T20:19:07.943Z,281.93
2018-12-18T20:21:36.618Z,266.48
2018-12-18T20:24:05.641Z,260.48
2018-12-18T20:26:34.310Z,257.20
2018-12-18T20:29:24.910Z,252.57
2018-12-18T20:31:57.222Z,270.70
2018-12-18T20:34:30.860Z,279.50
2018-12-18T20:36:59.392Z,285.33
2018-12-18T20:39:28.020Z,282.80
2018-12-18T20:41:57.171Z,331.57
2018-12-18T20:44:25.784Z,280.57
2018-12-18T20:46:54.486Z,447.57
2018-12-18T20:49:23.133Z,279.63
2018-12-18T20:51:51.721Z,265.00
2018-12-18T20:54:20.333Z,276.37
2018-12-18T20:56:48.911Z,284.48
2018-12-18T20:59:17.585Z,281.87
2018-12-18T21:01:46.205Z,294.80
2018-12-18T21:04:14.859Z,327.60
2018-12-18T21:06:43.459Z,318.52
2018-12-18T21:09:12.204Z,333.98
2018-12-18T21:11:40.809Z,346.05
2018-12-18T21:14:09.502Z,344.20
2018-12-18T21:16:38.177Z,338.50
2018-12-18T21:19:06.812Z,284.52
2018-12-18T21:21:35.463Z,288.23
2018-12-18T21:24:04.443Z,293.17
2018-12-18T21:26:33.759Z,276.42
2018-12-18T21:29:03.219Z,289.75
2018-12-18T21:31:31.786Z,307.93
2018-12-18T21:34:00.528Z,319.98
2018-12-18T21:36:29.080Z,322.13
2018-12-18T21:38:57.773Z,328.52
2018-12-18T21:41:26.377Z,329.93
2018-12-18T21:43:54.906Z,330.32
2018-12-18T21:46:23.474Z,315.32
2018-12-18T21:48:52.153Z,330.18
2018-12-18T21:51:20.955Z,330.23
2018-12-18T21:53:49.491Z,317.48
2018-12-18T21:56:18.073Z,319.18
2018-12-18T21:58:46.711Z,326.02
2018-12-18T22:01:15.360Z,336.90
2018-12-18T22:03:44.281Z,323.10
2018-12-18T22:06:13.123Z,335.10
2018-12-18T22:08:41.891Z,343.75
2018-12-18T22:11:11.111Z,369.90
2018-12-18T22:13:39.721Z,363.25
2018-12-18T22:16:08.937Z,334.62
2018-12-18T22:18:37.781Z,363.60
2018-12-18T22:21:06.435Z,398.43
2018-12-18T22:23:34.949Z,497.17
2018-12-18T22:26:03.761Z,374.75
2018-12-18T22:28:32.425Z,412.00
2018-12-18T22:31:01.180Z,378.03
2018-12-18T22:33:29.827Z,381.93
2018-12-18T22:35:58.507Z,389.27
2018-12-18T22:38:27.217Z,388.37
2018-12-18T22:40:55.846Z,455.30
2018-12-18T22:43:24.459Z,480.27
2018-12-18T22:45:53.039Z,408.67
2018-12-18T22:48:21.725Z,420.18
2018-12-18T22:50:50.267Z,479.72
2018-12-18T22:53:18.788Z,561.25
2018-12-18T22:55:47.633Z,455.48
2018-12-18T22:58:16.227Z,444.67
2018-12-18T23:00:53.176Z,518.23
2018-12-18T23:03:21.956Z,511.33
2018-12-18T23:05:50.460Z,499.67
2018-12-18T23:08:19.019Z,457.50
2018-12-18T23:10:47.601Z,455.45
2018-12-18T23:13:21.546Z,463.37
2018-12-18T23:15:50.207Z,470.45
2018-12-18T23:18:18.743Z,447.57
2018-12-18T23:20:47.264Z,423.70
2018-12-18T23:23:16.027Z,402.07
2018-12-18T23:25:44.577Z,400.30
2018-12-18T23:28:13.085Z,416.05
2018-12-18T23:30:41.732Z,440.23
2018-12-18T23:33:10.258Z,413.40
2018-12-18T23:35:38.829Z,405.27
2018-12-18T23:38:07.338Z,373.02
2018-12-18T23:40:35.904Z,377.32
2018-12-18T23:43:04.417Z,353.25
2018-12-18T23:45:32.967Z,349.82
2018-12-18T23:48:01.674Z,351.25
2018-12-18T23:50:30.281Z,314.77
2018-12-18T23:52:58.783Z,328.83
2018-12-18T23:55:27.311Z,336.32
2018-12-18T23:57:55.863Z,315.48
